createdAt,value
2019-03-01T00:02:13.075Z,67.63
2019-03-01T00:05:36.269Z,72.80
2019-03-01T00:08:15.789Z,69.17
2019-03-01T00:11:04.466Z,70.77
2019-03-01T00:14:06.123Z,71.70
2019-03-01T00:16:49.262Z,70.37
2019-03-01T00:19:44.255Z,67.57
2019-03-01T00:22:30.190Z,80.07
2019-03-01T00:25:22.028Z,72.73
2019-03-01T00:28:02.072Z,71.33
2019-03-01T00:30:45.160Z,71.07
2019-03-01T00:33:28.409Z,64.50
2019-03-01T00:36:25.948Z,73.63
2019-03-01T00:39:12.210Z,90.83
2019-03-01T00:41:52.536Z,95.93
2019-03-01T00:44:41.488Z,81.67
2019-03-01T00:47:11.206Z,77.67
2019-03-01T00:49:40.897Z,74.07
2019-03-01T00:52:11.244Z,82.10
2019-03-01T00:54:40.791Z,76.47
2019-03-01T00:57:10.501Z,82.90
2019-03-01T00:59:40.134Z,69.60
2019-03-01T01:02:09.794Z,78.03
2019-03-01T01:04:39.347Z,67.33
2019-03-01T01:07:08.886Z,70.87
2019-03-01T01:09:38.619Z,66.13
2019-03-01T01:12:08.328Z,58.63
2019-03-01T01:14:38.071Z,81.10
2019-03-01T01:17:07.618Z,69.33
2019-03-01T01:19:37.167Z,88.87
2019-03-01T01:22:06.731Z,79.43
2019-03-01T01:24:36.280Z,71.17
2019-03-01T01:27:05.925Z,83.20
2019-03-01T01:29:35.478Z,71.67
2019-03-01T01:32:05.051Z,63.20
2019-03-01T01:34:34.619Z,74.80
2019-03-01T01:37:04.194Z,63.27
2019-03-01T01:39:34.239Z,66.33
2019-03-01T01:42:03.853Z,72.57
2019-03-01T01:44:33.404Z,65.37
2019-03-01T01:47:02.981Z,62.37
2019-03-01T01:49:32.518Z,88.13
2019-03-01T01:52:02.096Z,62.93
2019-03-01T01:54:31.630Z,62.93
2019-03-01T01:57:01.542Z,64.53
2019-03-01T01:59:31.074Z,67.10
2019-03-01T02:02:00.624Z,62.17
2019-03-01T02:04:30.194Z,89.37
2019-03-01T02:06:59.816Z,63.37
2019-03-01T02:09:29.475Z,75.33
2019-03-01T02:11:59.032Z,69.20
2019-03-01T02:14:28.844Z,76.83
2019-03-01T02:16:58.392Z,71.57
2019-03-01T02:19:27.940Z,71.10
2019-03-01T02:21:57.505Z,73.80
2019-03-01T02:24:27.043Z,69.13
2019-03-01T02:27:27.051Z,69.17
2019-03-01T02:29:56.705Z,73.47
2019-03-01T02:32:33.811Z,65.30
2019-03-01T02:35:03.360Z,61.50
2019-03-01T02:37:32.933Z,69.40
2019-03-01T02:40:02.506Z,66.27
2019-03-01T02:42:32.047Z,73.00
2019-03-01T02:45:01.617Z,60.00
2019-03-01T02:47:31.178Z,67.67
2019-03-01T02:50:00.722Z,67.90
2019-03-01T02:52:30.300Z,70.73
2019-03-01T02:54:59.845Z,72.13
2019-03-01T02:57:29.493Z,67.80
2019-03-01T02:59:59.046Z,67.53
2019-03-01T03:02:28.661Z,76.07
2019-03-01T03:04:58.237Z,64.83
2019-03-01T03:07:29.425Z,66.37
2019-03-01T03:09:59.009Z,66.17
2019-03-01T03:12:28.560Z,62.00
2019-03-01T03:14:58.101Z,67.03
2019-03-01T03:17:28.000Z,62.97
2019-03-01T03:19:57.549Z,72.27
2019-03-01T03:22:27.204Z,70.77
2019-03-01T03:24:56.752Z,68.87
2019-03-01T03:27:26.301Z,76.47
2019-03-01T03:29:55.901Z,67.17
2019-03-01T03:32:25.981Z,76.67
2019-03-01T03:34:55.717Z,62.57
2019-03-01T03:37:25.260Z,62.43
2019-03-01T03:39:54.810Z,71.40
2019-03-01T03:42:24.397Z,65.67
2019-03-01T03:44:54.086Z,61.93
2019-03-01T03:47:24.104Z,67.73
2019-03-01T03:49:53.664Z,80.67
2019-03-01T03:52:23.216Z,80.63
2019-03-01T03:54:52.793Z,74.50
2019-03-01T03:57:22.525Z,74.23
2019-03-01T03:59:52.185Z,60.50
2019-03-01T04:02:21.760Z,77.47
2019-03-01T04:04:51.556Z,77.77
2019-03-01T04:07:21.181Z,70.83
2019-03-01T04:09:50.719Z,88.43
2019-03-01T04:12:20.300Z,79.17
2019-03-01T04:14:49.841Z,95.50
2019-03-01T04:17:19.428Z,94.53
2019-03-01T04:19:49.050Z,83.20
2019-03-01T04:22:18.772Z,83.03
2019-03-01T04:24:48.320Z,72.53
2019-03-01T04:27:17.871Z,80.67
2019-03-01T04:29:47.741Z,79.23
2019-03-01T04:32:17.381Z,80.13
2019-03-01T04:34:46.990Z,63.87
2019-03-01T04:37:16.545Z,83.53
2019-03-01T04:39:46.114Z,78.03
2019-03-01T04:42:15.674Z,73.17
2019-03-01T04:44:45.428Z,83.80
2019-03-01T04:47:15.068Z,74.93
2019-03-01T04:49:46.283Z,77.63
2019-03-01T04:52:35.660Z,69.87
2019-03-01T04:55:10.982Z,76.60
2019-03-01T04:57:40.563Z,77.60
2019-03-01T05:00:17.041Z,69.37
2019-03-01T05:02:46.621Z,63.53
2019-03-01T05:05:16.915Z,54.40
2019-03-01T05:07:46.597Z,68.67
2019-03-01T05:10:16.867Z,67.13
2019-03-01T05:12:46.547Z,56.80
2019-03-01T05:15:19.301Z,64.67
2019-03-01T05:17:48.864Z,70.33
2019-03-01T05:20:18.416Z,78.07
2019-03-01T05:22:48.150Z,66.50
2019-03-01T05:25:17.713Z,81.37
2019-03-01T05:27:47.374Z,82.57
2019-03-01T05:30:18.755Z,81.67
2019-03-01T05:32:48.523Z,92.90
2019-03-01T05:35:18.179Z,103.67
2019-03-01T05:37:47.719Z,92.57
2019-03-01T05:40:18.184Z,110.43
2019-03-01T05:42:47.743Z,104.50
2019-03-01T05:45:27.123Z,121.77
2019-03-01T05:47:56.994Z,119.47
2019-03-01T05:50:26.554Z,118.00
2019-03-01T05:52:56.140Z,131.63
2019-03-01T05:55:25.859Z,117.13
2019-03-01T05:58:31.412Z,110.80
2019-03-01T06:01:26.270Z,101.20
2019-03-01T06:04:03.353Z,105.77
2019-03-01T06:06:48.960Z,112.57
2019-03-01T06:09:35.333Z,109.57
2019-03-01T06:12:42.966Z,105.23
2019-03-01T06:15:59.675Z,111.87
2019-03-01T06:19:13.862Z,116.93
2019-03-01T06:22:24.594Z,103.23
2019-03-01T06:25:18.356Z,111.67
2019-03-01T06:27:58.185Z,94.63
2019-03-01T06:30:35.240Z,112.47
2019-03-01T06:33:28.934Z,118.00
2019-03-01T06:36:08.987Z,113.13
2019-03-01T06:39:30.677Z,129.00
2019-03-01T06:42:30.383Z,117.67
2019-03-01T06:45:25.738Z,107.57
2019-03-01T06:47:55.301Z,111.80
2019-03-01T06:50:26.515Z,131.63
2019-03-01T06:52:56.144Z,128.50
2019-03-01T06:55:42.422Z,119.93
2019-03-01T06:58:16.966Z,112.47
2019-03-01T07:00:50.409Z,110.03
2019-03-01T07:03:19.821Z,128.90
2019-03-01T07:05:49.387Z,116.47
2019-03-01T07:08:19.025Z,110.77
2019-03-01T07:10:48.581Z,117.50
2019-03-01T07:13:18.153Z,123.33
2019-03-01T07:15:47.714Z,120.10
2019-03-01T07:18:17.368Z,135.50
2019-03-01T07:20:46.977Z,138.33
2019-03-01T07:23:16.541Z,139.47
2019-03-01T07:25:46.112Z,130.53
2019-03-01T07:28:15.656Z,131.47
2019-03-01T07:30:45.278Z,131.83
2019-03-01T07:33:14.838Z,123.33
2019-03-01T07:35:46.280Z,124.73
2019-03-01T07:38:15.741Z,127.87
2019-03-01T07:40:45.400Z,142.03
2019-03-01T07:43:14.995Z,128.07
2019-03-01T07:45:44.544Z,131.17
2019-03-01T07:48:14.184Z,142.73
2019-03-01T07:50:43.738Z,130.40
2019-03-01T07:53:13.643Z,155.10
2019-03-01T07:55:44.110Z,145.00
2019-03-01T07:58:13.818Z,133.67
2019-03-01T08:00:43.470Z,138.67
2019-03-01T08:03:15.122Z,124.07
2019-03-01T08:05:44.327Z,121.20
2019-03-01T08:08:13.884Z,142.03
2019-03-01T08:10:43.491Z,150.70
2019-03-01T08:13:14.768Z,137.20
2019-03-01T08:15:44.799Z,155.50
2019-03-01T08:18:15.497Z,139.07
2019-03-01T08:20:45.017Z,141.23
2019-03-01T08:23:14.574Z,148.80
2019-03-01T08:25:44.095Z,161.03
2019-03-01T08:28:13.641Z,152.03
2019-03-01T08:30:46.902Z,167.17
2019-03-01T08:33:16.503Z,160.77
2019-03-01T08:35:46.023Z,154.73
2019-03-01T08:38:15.547Z,166.30
2019-03-01T08:40:46.677Z,144.33
2019-03-01T08:43:16.621Z,163.80
2019-03-01T08:45:46.287Z,153.33
2019-03-01T08:48:15.807Z,156.80
2019-03-01T08:50:45.845Z,150.93
2019-03-01T08:53:16.159Z,142.70
2019-03-01T08:55:46.333Z,147.57
2019-03-01T08:58:15.873Z,143.33
2019-03-01T09:00:59.032Z,171.20
2019-03-01T09:03:31.643Z,142.20
2019-03-01T09:06:01.165Z,158.43
2019-03-01T09:08:30.718Z,139.43
2019-03-01T09:11:00.252Z,151.17
2019-03-01T09:13:29.852Z,139.77
2019-03-01T09:15:59.409Z,139.37
2019-03-01T09:18:28.999Z,122.33
2019-03-01T09:21:05.637Z,149.90
2019-03-01T09:23:29.982Z,148.33
2019-03-01T09:25:59.504Z,148.17
2019-03-01T09:28:29.213Z,148.70
2019-03-01T09:30:58.759Z,139.83
2019-03-01T09:33:28.314Z,146.97
2019-03-01T09:36:05.236Z,125.57
2019-03-01T09:38:34.967Z,122.87
2019-03-01T09:41:05.421Z,125.40
2019-03-01T09:43:34.975Z,137.57
2019-03-01T09:46:04.577Z,133.50
2019-03-01T09:48:34.108Z,149.67
2019-03-01T09:51:03.728Z,154.67
2019-03-01T09:53:34.163Z,140.93
2019-03-01T09:56:04.711Z,129.47
2019-03-01T09:58:34.246Z,133.50
2019-03-01T10:01:11.372Z,138.23
2019-03-01T10:03:40.906Z,150.60
2019-03-01T10:06:10.446Z,136.57
2019-03-01T10:08:39.981Z,128.57
2019-03-01T10:11:09.598Z,137.43
2019-03-01T10:13:39.134Z,128.03
2019-03-01T10:16:08.724Z,120.47
2019-03-01T10:18:38.725Z,119.70
2019-03-01T10:21:08.248Z,136.50
2019-03-01T10:23:37.835Z,132.50
2019-03-01T10:26:07.401Z,118.13
2019-03-01T10:28:36.924Z,116.87
2019-03-01T10:31:06.555Z,129.30
2019-03-01T10:33:36.094Z,131.27
2019-03-01T10:36:05.854Z,110.27
2019-03-01T10:38:35.403Z,124.63
2019-03-01T10:41:05.103Z,125.63
2019-03-01T10:43:34.655Z,130.70
2019-03-01T10:46:04.192Z,138.43
2019-03-01T10:48:33.855Z,142.97
2019-03-01T10:51:03.343Z,134.77
2019-03-01T10:53:32.863Z,131.80
2019-03-01T10:56:02.449Z,126.00
2019-03-01T10:58:32.000Z,149.97
2019-03-01T11:01:01.569Z,141.70
2019-03-01T11:03:31.273Z,135.13
2019-03-01T11:06:00.759Z,150.87
2019-03-01T11:08:30.306Z,142.63
2019-03-01T11:10:59.871Z,136.47
2019-03-01T11:13:29.369Z,161.17
2019-03-01T11:15:58.923Z,159.00
2019-03-01T11:18:28.479Z,133.47
2019-03-01T11:20:58.077Z,177.40
2019-03-01T11:23:27.666Z,167.83
2019-03-01T11:25:57.198Z,147.47
2019-03-01T11:28:26.746Z,157.07
2019-03-01T11:30:56.336Z,186.77
2019-03-01T11:33:25.891Z,181.37
2019-03-01T11:35:55.706Z,163.93
2019-03-01T11:38:25.258Z,179.90
2019-03-01T11:40:55.923Z,183.83
2019-03-01T11:43:25.485Z,163.93
2019-03-01T11:45:55.007Z,165.23
2019-03-01T11:48:24.708Z,157.50
2019-03-01T11:50:54.301Z,170.40
2019-03-01T11:53:23.847Z,135.63
2019-03-01T11:55:53.544Z,138.80
2019-03-01T11:58:23.068Z,132.33
2019-03-01T12:00:52.676Z,131.53
2019-03-01T12:03:22.362Z,130.33
2019-03-01T12:05:51.888Z,132.20
2019-03-01T12:08:21.417Z,132.93
2019-03-01T12:10:50.961Z,119.80
2019-03-01T12:13:20.492Z,128.93
2019-03-01T12:15:50.035Z,128.80
2019-03-01T12:18:19.698Z,119.27
2019-03-01T12:20:49.219Z,131.70
2019-03-01T12:23:18.790Z,126.30
2019-03-01T12:25:48.351Z,128.87
2019-03-01T12:28:17.907Z,130.90
2019-03-01T12:30:47.589Z,121.87
2019-03-01T12:33:17.238Z,131.17
2019-03-01T12:35:46.774Z,117.30
2019-03-01T12:38:16.304Z,122.97
2019-03-01T12:40:45.860Z,102.60
2019-03-01T12:43:15.388Z,89.93
2019-03-01T12:45:44.920Z,97.33
2019-03-01T12:48:14.883Z,92.43
2019-03-01T12:50:44.413Z,88.30
2019-03-01T12:53:13.967Z,86.23
2019-03-01T12:55:43.709Z,80.87
2019-03-01T12:58:19.343Z,74.70
2019-03-01T13:00:44.567Z,94.30
2019-03-01T13:03:14.291Z,89.60
2019-03-01T13:05:43.808Z,92.97
2019-03-01T13:08:15.756Z,73.10
2019-03-01T13:10:46.133Z,89.50
2019-03-01T13:13:15.771Z,84.07
2019-03-01T13:15:48.322Z,71.57
2019-03-01T13:18:16.890Z,85.27
2019-03-01T13:20:46.477Z,64.80
2019-03-01T13:23:16.012Z,71.27
2019-03-01T13:25:45.573Z,57.37
2019-03-01T13:28:15.094Z,65.50
2019-03-01T13:30:44.666Z,49.80
2019-03-01T13:33:14.344Z,48.43
2019-03-01T13:35:43.883Z,44.37
2019-03-01T13:38:13.402Z,56.77
2019-03-01T13:40:43.373Z,33.87
2019-03-01T13:43:12.884Z,30.90
2019-03-01T13:45:42.420Z,29.40
2019-03-01T13:48:12.126Z,40.73
2019-03-01T13:50:42.424Z,33.33
2019-03-01T13:53:12.017Z,23.57
2019-03-01T13:55:41.789Z,26.07
2019-03-01T13:58:11.298Z,31.03
2019-03-01T14:00:40.822Z,29.10
2019-03-01T14:03:10.794Z,24.60
2019-03-01T14:05:40.316Z,35.83
2019-03-01T14:08:09.831Z,21.43
2019-03-01T14:10:41.857Z,32.00
2019-03-01T14:13:11.243Z,35.10
2019-03-01T14:15:42.205Z,28.00
2019-03-01T14:18:11.742Z,28.13
2019-03-01T14:20:41.271Z,24.40
2019-03-01T14:23:10.792Z,18.70
2019-03-01T14:25:41.712Z,21.70
2019-03-01T14:28:14.300Z,23.77
2019-03-01T14:30:43.905Z,20.33
2019-03-01T14:33:13.698Z,22.27
2019-03-01T14:35:43.259Z,21.17
2019-03-01T14:38:12.846Z,20.43
2019-03-01T14:40:42.400Z,17.87
2019-03-01T14:43:12.390Z,17.10
2019-03-01T14:45:44.774Z,12.27
2019-03-01T14:48:13.460Z,23.13
2019-03-01T14:50:43.038Z,19.70
2019-03-01T14:53:12.565Z,18.87
2019-03-01T14:55:55.664Z,14.17
2019-03-01T14:58:37.911Z,10.17
2019-03-01T15:01:26.800Z,63.10
2019-03-01T15:03:55.535Z,65.13
2019-03-01T15:06:25.127Z,23.30
2019-03-01T15:08:54.750Z,21.73
2019-03-01T15:11:24.909Z,15.77
2019-03-01T15:13:54.495Z,30.80
2019-03-01T15:16:24.318Z,16.53
2019-03-01T15:18:53.837Z,19.67
2019-03-01T15:21:23.363Z,15.70
2019-03-01T15:23:56.365Z,11.80
2019-03-01T15:26:26.599Z,14.47
2019-03-01T15:28:56.043Z,9.17
2019-03-01T15:31:26.054Z,8.50
2019-03-01T15:33:55.570Z,15.33
2019-03-01T15:36:25.089Z,9.90
2019-03-01T15:38:54.642Z,9.57
2019-03-01T15:41:24.168Z,9.70
2019-03-01T15:43:53.675Z,8.93
2019-03-01T15:46:23.227Z,17.80
2019-03-01T15:48:52.741Z,12.53
2019-03-01T15:51:22.268Z,9.80
2019-03-01T15:53:52.220Z,5.93
2019-03-01T15:56:22.142Z,7.17
2019-03-01T15:58:52.014Z,7.60
2019-03-01T16:01:21.754Z,7.83
2019-03-01T16:03:54.042Z,22.40
2019-03-01T16:06:23.081Z,9.57
2019-03-01T16:08:52.614Z,17.20
2019-03-01T16:11:22.339Z,11.83
2019-03-01T16:13:51.847Z,9.33
2019-03-01T16:16:21.375Z,11.07
2019-03-01T16:18:50.921Z,19.43
2019-03-01T16:21:20.434Z,11.90
2019-03-01T16:23:50.386Z,12.53
2019-03-01T16:26:29.409Z,7.77
2019-03-01T16:28:51.139Z,12.00
2019-03-01T16:31:33.499Z,10.33
2019-03-01T16:34:05.344Z,13.23
2019-03-01T16:36:36.112Z,9.50
2019-03-01T16:39:10.378Z,12.63
2019-03-01T16:41:42.817Z,11.97
2019-03-01T16:44:11.219Z,12.40
2019-03-01T16:46:40.746Z,19.13
2019-03-01T16:49:10.284Z,13.53
2019-03-01T16:51:39.808Z,16.80
2019-03-01T16:54:09.429Z,8.13
2019-03-01T16:56:39.418Z,8.37
2019-03-01T16:59:09.354Z,14.03
2019-03-01T17:01:40.885Z,11.47
2019-03-01T17:04:10.471Z,13.63
2019-03-01T17:06:40.009Z,11.53
2019-03-01T17:09:11.729Z,12.57
2019-03-01T17:11:41.384Z,15.60
2019-03-01T17:14:11.881Z,7.70
2019-03-01T17:16:41.539Z,7.43
2019-03-01T17:19:11.056Z,13.70
2019-03-01T17:21:40.571Z,11.83
2019-03-01T17:24:12.268Z,10.83
2019-03-01T17:26:41.386Z,8.33
2019-03-01T17:29:10.953Z,9.03
2019-03-01T17:31:40.476Z,12.77
2019-03-01T17:34:10.227Z,11.17
2019-03-01T17:36:39.757Z,28.73
2019-03-01T17:39:09.828Z,20.17
2019-03-01T17:41:44.639Z,18.57
2019-03-01T17:44:10.616Z,11.93
2019-03-01T17:46:40.154Z,17.93
2019-03-01T17:49:09.674Z,12.37
2019-03-01T17:51:39.219Z,8.60
2019-03-01T17:54:08.734Z,22.17
2019-03-01T17:56:38.251Z,12.00
2019-03-01T17:59:08.396Z,9.30
2019-03-01T18:01:40.297Z,12.73
2019-03-01T18:04:09.900Z,11.33
2019-03-01T18:06:39.429Z,13.60
2019-03-01T18:09:09.273Z,9.33
2019-03-01T18:11:40.713Z,9.57
2019-03-01T18:14:10.815Z,14.43
2019-03-01T18:16:40.376Z,9.53
2019-03-01T18:19:09.962Z,10.90
2019-03-01T18:21:39.533Z,13.03
2019-03-01T18:24:11.002Z,13.13
2019-03-01T18:26:40.986Z,11.73
2019-03-01T18:29:10.631Z,9.97
2019-03-01T18:31:40.151Z,7.60
2019-03-01T18:34:09.690Z,9.93
2019-03-01T18:36:39.224Z,11.30
2019-03-01T18:39:13.207Z,11.10
2019-03-01T18:41:42.721Z,8.37
2019-03-01T18:44:12.703Z,19.77
2019-03-01T18:46:42.228Z,16.20
2019-03-01T18:49:11.751Z,12.93
2019-03-01T18:51:43.200Z,6.13
2019-03-01T18:54:12.610Z,9.30
2019-03-01T18:56:42.157Z,13.20
2019-03-01T18:59:11.675Z,6.20
2019-03-01T19:01:42.973Z,11.67
2019-03-01T19:04:12.882Z,6.17
2019-03-01T19:06:43.752Z,11.93
2019-03-01T19:09:16.494Z,8.83
2019-03-01T19:11:44.778Z,20.93
2019-03-01T19:14:14.302Z,8.87
2019-03-01T19:16:43.843Z,7.77
2019-03-01T19:19:13.355Z,12.80
2019-03-01T19:21:42.902Z,11.50
2019-03-01T19:24:12.422Z,11.20
2019-03-01T19:26:41.961Z,8.30
2019-03-01T19:29:11.651Z,5.17
2019-03-01T19:31:41.544Z,8.77
2019-03-01T19:34:13.067Z,8.50
2019-03-01T19:36:42.316Z,16.27
2019-03-01T19:39:20.052Z,9.70
2019-03-01T19:41:49.560Z,9.40
2019-03-01T19:44:19.094Z,12.40
2019-03-01T19:46:51.398Z,10.40
2019-03-01T19:49:19.926Z,12.13
2019-03-01T19:51:49.432Z,5.40
2019-03-01T19:54:18.930Z,7.63
2019-03-01T19:56:48.548Z,15.43
2019-03-01T19:59:18.095Z,25.50
2019-03-01T20:01:49.387Z,9.60
2019-03-01T20:04:21.204Z,15.00
2019-03-01T20:06:50.630Z,9.40
2019-03-01T20:09:20.686Z,14.57
2019-03-01T20:11:51.934Z,9.97
2019-03-01T20:14:21.557Z,9.83
2019-03-01T20:16:51.077Z,5.23
2019-03-01T20:19:23.407Z,6.23
2019-03-01T20:21:53.162Z,6.93
2019-03-01T20:24:22.705Z,9.20
2019-03-01T20:26:52.259Z,8.67
2019-03-01T20:29:21.816Z,6.10
2019-03-01T20:31:51.339Z,7.67
2019-03-01T20:34:20.865Z,13.20
2019-03-01T20:36:52.961Z,17.07
2019-03-01T20:39:21.827Z,13.73
2019-03-01T20:41:51.352Z,13.00
2019-03-01T20:44:20.887Z,5.97
2019-03-01T20:46:50.409Z,9.20
2019-03-01T20:49:19.926Z,6.20
2019-03-01T20:51:49.525Z,6.43
2019-03-01T20:54:21.868Z,10.70
2019-03-01T20:56:51.658Z,7.67
2019-03-01T20:59:21.590Z,5.97
2019-03-01T21:01:51.119Z,7.37
2019-03-01T21:04:20.665Z,5.97
2019-03-01T21:06:50.206Z,9.83
2019-03-01T21:09:19.993Z,5.17
2019-03-01T21:11:49.506Z,7.83
2019-03-01T21:14:19.139Z,11.30
2019-03-01T21:16:51.502Z,8.20
2019-03-01T21:19:21.076Z,7.93
2019-03-01T21:21:50.676Z,8.17
2019-03-01T21:24:23.000Z,13.33
2019-03-01T21:26:52.078Z,5.23
2019-03-01T21:29:21.670Z,6.83
2019-03-01T21:31:51.286Z,6.83
2019-03-01T21:34:21.067Z,10.50
2019-03-01T21:36:50.722Z,7.80
2019-03-01T21:39:20.624Z,8.93
2019-03-01T21:41:51.503Z,8.63
2019-03-01T21:44:21.057Z,6.33
2019-03-01T21:46:50.614Z,7.70
2019-03-01T21:49:20.168Z,11.87
2019-03-01T21:51:51.675Z,7.40
2019-03-01T21:54:20.971Z,11.80
2019-03-01T21:56:55.702Z,11.00
2019-03-01T21:59:22.087Z,9.00
2019-03-01T22:01:52.785Z,13.60
2019-03-01T22:04:22.519Z,12.73
2019-03-01T22:06:52.047Z,8.63
2019-03-01T22:09:24.274Z,5.43
2019-03-01T22:11:52.826Z,7.67
2019-03-01T22:14:22.380Z,11.53
2019-03-01T22:16:51.911Z,12.60
2019-03-01T22:19:21.422Z,9.30
2019-03-01T22:21:50.966Z,11.67
2019-03-01T22:24:23.721Z,10.17
2019-03-01T22:26:51.743Z,13.40
2019-03-01T22:29:21.308Z,6.10
2019-03-01T22:31:50.841Z,6.53
2019-03-01T22:34:20.366Z,13.03
2019-03-01T22:36:52.901Z,7.63
2019-03-01T22:39:21.243Z,10.00
2019-03-01T22:41:50.736Z,8.73
2019-03-01T22:44:20.309Z,10.60
2019-03-01T22:46:49.839Z,8.27
2019-03-01T22:49:19.348Z,12.10
2019-03-01T22:51:49.605Z,13.67
2019-03-01T22:54:20.160Z,13.20
2019-03-01T22:56:49.703Z,9.83
2019-03-01T22:59:19.348Z,14.93
2019-03-01T23:01:48.860Z,9.87
2019-03-01T23:04:18.383Z,12.87
2019-03-01T23:06:51.582Z,6.67
2019-03-01T23:09:19.839Z,4.97
2019-03-01T23:11:49.357Z,9.67
2019-03-01T23:14:18.896Z,10.47
2019-03-01T23:16:50.619Z,6.60
2019-03-01T23:19:19.675Z,4.80
2019-03-01T23:21:49.397Z,8.03
2019-03-01T23:24:18.928Z,7.80
2019-03-01T23:26:48.453Z,12.03
2019-03-01T23:29:18.897Z,6.73
2019-03-01T23:31:49.342Z,12.27
2019-03-01T23:34:18.871Z,7.47
2019-03-01T23:36:48.430Z,18.43
2019-03-01T23:39:17.937Z,15.00
2019-03-01T23:41:47.469Z,19.40
2019-03-01T23:44:16.997Z,11.83
2019-03-01T23:46:46.514Z,5.30
2019-03-01T23:49:16.040Z,7.10
2019-03-01T23:51:46.263Z,6.43
2019-03-01T23:54:15.812Z,6.20
2019-03-01T23:56:45.335Z,8.80
2019-03-01T23:59:15.252Z,7.00
